Deckers, Colorado
Current Conditions -  °F | °C
As of 5:53 PM on Friday 24 Oct 2014 (Local Time) from KAPA Reporting Station
Few Clouds Few Clouds  
Wind Chill: 69°   Ceiling: Unl
Heat Index: 69°   Visibility: 10mi
Dew Point: 26°   Wind: 5mph
Humidity: 20%   Direction: 100°E
Pressure: 30.17"   Gusts: NA
Location:  39.3043°N, 105.131°W
Report Text: KAPA 242353Z 10004KT 10SM FEW200 21/M03 A3017 RMK AO2 SLP162 T02061033 10261 20206 53003
Loading
Personal Weather Stations






























Interactive Weather Map
Tropical Storm Tracking
New forecast layout! Learn more

10-Day Weather Forecast

Advertisements
Track Severe Weather on mobile